Terminal Aerodrome Forecast
Issued by NWS

Home | Current Version | Previous Version | Text Only | Print | Product List | Glossary On
Versions: 1 2 3 4 5 6 7 8 9 10 11 12 13 14 15 16 17 18 19 20 21 22
000
FTUS43 KGRB 020520
TAFMTW
TAF
KMTW 020520Z 0206/0306 23003KT 5SM BR SCT140 BKN200
     FM020900 24003KT 4SM BR FEW004 SCT140 BKN200
      TEMPO 0209/0213 1 1/2SM BR SCT004 BKN140
     FM021400 29006KT P6SM SCT020 BKN120
     FM022200 09003KT P6SM SCT030 BKN100 PROB30 0300/0302 5SM -SHRA
      BR BKN030
     FM030200 VRB03KT 5SM -SHRA BR BKN020 PROB30 0302/0306 4SM -TSRA
      BKN020CB=

USA.gov is the U.S. government's official web portal to all federal, state and local government web resources and services.